createdAt,value
2022-10-14T00:01:45.206Z,12.90
2022-10-14T00:04:11.762Z,14.23
2022-10-14T00:06:38.402Z,15.50
2022-10-14T00:09:08.760Z,10.80
2022-10-14T00:11:36.921Z,10.30
2022-10-14T00:14:07.872Z,11.65
2022-10-14T00:16:37.298Z,12.02
2022-10-14T00:19:05.700Z,11.57
2022-10-14T00:21:34.813Z,12.40
2022-10-14T00:24:02.972Z,11.60
2022-10-14T00:26:34.300Z,11.63
2022-10-14T00:29:03.373Z,10.57
2022-10-14T00:31:32.184Z,12.82
2022-10-14T00:34:00.751Z,11.80
2022-10-14T00:36:28.397Z,12.80
2022-10-14T00:38:55.532Z,14.95
2022-10-14T00:41:33.177Z,11.15
2022-10-14T00:46:41.801Z,17.73
2022-10-14T00:51:52.365Z,16.83
2022-10-14T00:54:23.217Z,15.00
2022-10-14T00:56:50.837Z,15.77
2022-10-14T00:59:17.813Z,16.08
2022-10-14T01:01:45.143Z,13.02
2022-10-14T01:04:11.881Z,16.30
2022-10-14T01:06:55.696Z,13.25
2022-10-14T01:09:39.063Z,14.60
2022-10-14T01:15:22.143Z,15.30
2022-10-14T01:20:56.183Z,17.08
2022-10-14T01:26:55.013Z,15.25
2022-10-14T01:32:06.835Z,15.80
2022-10-14T01:34:40.930Z,16.27
2022-10-14T01:37:16.482Z,17.15
2022-10-14T01:39:48.049Z,15.15
2022-10-14T01:42:20.242Z,17.10
2022-10-14T01:44:54.275Z,17.25
2022-10-14T01:47:21.679Z,15.27
2022-10-14T01:49:55.992Z,16.23
2022-10-14T01:52:30.074Z,13.80
2022-10-14T01:55:02.685Z,20.45
2022-10-14T01:57:33.888Z,22.45
2022-10-14T02:00:02.290Z,19.05
2022-10-14T02:02:28.880Z,18.50
2022-10-14T02:04:55.522Z,21.00
2022-10-14T02:12:55.367Z,15.25
2022-10-14T02:26:43.175Z,16.77
2022-10-14T02:29:09.733Z,18.33
2022-10-14T02:31:39.832Z,16.35
2022-10-14T02:39:06.442Z,13.73
2022-10-14T02:41:36.421Z,15.00
2022-10-14T02:44:05.971Z,17.30
2022-10-14T02:46:33.833Z,18.60
2022-10-14T02:49:00.429Z,16.60
2022-10-14T02:51:27.006Z,16.85
2022-10-14T02:53:53.541Z,12.07
2022-10-14T02:56:20.498Z,13.80
2022-10-14T02:58:47.059Z,14.07
2022-10-14T03:01:13.673Z,11.52
2022-10-14T03:03:40.443Z,14.50
2022-10-14T03:06:07.317Z,11.27
2022-10-14T03:08:34.051Z,12.73
2022-10-14T03:11:00.694Z,13.88
2022-10-14T03:13:27.227Z,13.77
2022-10-14T03:15:53.733Z,16.60
2022-10-14T03:18:21.638Z,15.15
2022-10-14T03:20:48.257Z,11.80
2022-10-14T03:23:14.768Z,15.48
2022-10-14T03:25:43.884Z,11.82
2022-10-14T03:28:10.615Z,9.25
2022-10-14T03:30:37.386Z,10.82
2022-10-14T03:33:04.125Z,10.65
2022-10-14T03:35:30.655Z,15.30
2022-10-14T03:37:59.470Z,14.68
2022-10-14T03:40:26.030Z,13.32
2022-10-14T03:42:52.569Z,17.70
2022-10-14T03:45:19.269Z,12.40
2022-10-14T03:47:45.842Z,12.80
2022-10-14T03:50:12.426Z,10.52
2022-10-14T03:52:44.885Z,11.38
2022-10-14T03:55:13.205Z,12.88
2022-10-14T03:57:39.900Z,7.13
2022-10-14T04:00:07.249Z,9.98
2022-10-14T04:02:33.756Z,10.80
2022-10-14T04:05:01.234Z,11.27
2022-10-14T04:07:27.963Z,11.07
2022-10-14T04:09:54.843Z,12.23
2022-10-14T04:12:21.751Z,9.45
2022-10-14T04:14:48.535Z,11.95
2022-10-14T04:17:15.642Z,14.05
2022-10-14T04:19:42.225Z,9.00
2022-10-14T04:22:09.870Z,11.13
2022-10-14T04:24:36.716Z,13.18
2022-10-14T04:27:03.357Z,12.65
2022-10-14T04:29:29.956Z,15.20
2022-10-14T04:31:56.513Z,15.90
2022-10-14T04:34:23.106Z,16.40
2022-10-14T04:36:49.754Z,13.18
2022-10-14T04:39:16.368Z,12.00
2022-10-14T04:41:42.893Z,12.30
2022-10-14T04:44:09.525Z,13.00
2022-10-14T04:46:36.055Z,14.02
2022-10-14T04:49:02.654Z,14.05
2022-10-14T04:51:29.252Z,15.27
2022-10-14T04:53:57.254Z,13.05
2022-10-14T04:56:23.817Z,13.10
2022-10-14T04:58:50.845Z,13.35
2022-10-14T05:01:18.681Z,16.33
2022-10-14T05:03:45.386Z,13.32
2022-10-14T05:06:11.961Z,10.55
2022-10-14T05:08:38.488Z,11.32
2022-10-14T05:11:05.301Z,10.60
2022-10-14T05:13:31.906Z,15.63
2022-10-14T05:15:58.563Z,14.55
2022-10-14T05:18:25.139Z,11.32
2022-10-14T05:20:51.810Z,16.08
2022-10-14T05:23:18.518Z,19.17
2022-10-14T05:25:45.074Z,14.20
2022-10-14T05:28:11.677Z,11.38
2022-10-14T05:30:38.244Z,13.23
2022-10-14T05:33:04.838Z,16.15
2022-10-14T05:35:56.985Z,13.30
2022-10-14T05:38:17.876Z,17.38
2022-10-14T05:40:51.999Z,14.60
2022-10-14T05:43:18.544Z,17.75
2022-10-14T05:45:45.088Z,12.93
2022-10-14T05:48:11.652Z,15.30
2022-10-14T05:50:38.169Z,12.90
2022-10-14T05:53:04.750Z,14.50
2022-10-14T05:55:31.523Z,13.68
2022-10-14T05:57:58.362Z,20.00
2022-10-14T06:00:26.018Z,17.48
2022-10-14T06:02:52.783Z,17.25
2022-10-14T06:05:19.520Z,20.67
2022-10-14T06:07:46.053Z,15.15
2022-10-14T06:10:12.692Z,12.40
2022-10-14T06:12:39.465Z,18.60
2022-10-14T06:15:06.610Z,15.80
2022-10-14T06:17:33.189Z,18.55
2022-10-14T06:19:59.753Z,12.30
2022-10-14T06:22:26.318Z,17.50
2022-10-14T06:24:52.832Z,14.57
2022-10-14T06:27:19.654Z,14.43
2022-10-14T06:29:46.964Z,12.80
2022-10-14T06:32:13.485Z,10.82
2022-10-14T06:34:40.070Z,10.50
2022-10-14T06:37:06.991Z,14.45
2022-10-14T06:39:33.734Z,9.35
2022-10-14T06:42:00.322Z,11.20
2022-10-14T06:44:26.871Z,12.95
2022-10-14T06:46:53.434Z,11.60
2022-10-14T06:49:20.147Z,15.75
2022-10-14T06:51:46.744Z,12.95
2022-10-14T06:54:13.285Z,14.52
2022-10-14T06:56:39.856Z,14.80
2022-10-14T06:59:06.441Z,15.30
2022-10-14T07:01:33.053Z,14.90
2022-10-14T07:03:59.645Z,11.75
2022-10-14T07:06:26.239Z,14.20
2022-10-14T07:08:53.175Z,17.42
2022-10-14T07:11:19.719Z,15.13
2022-10-14T07:13:46.477Z,11.32
2022-10-14T07:16:13.126Z,10.82
2022-10-14T07:18:39.701Z,13.35
2022-10-14T07:21:07.183Z,15.27
2022-10-14T07:23:34.394Z,8.63
2022-10-14T07:26:01.356Z,14.98
2022-10-14T07:28:28.322Z,11.52
2022-10-14T07:31:01.770Z,11.95
2022-10-14T07:33:28.505Z,18.23
2022-10-14T07:35:55.761Z,13.93
2022-10-14T07:38:22.738Z,18.52
2022-10-14T07:40:59.777Z,14.80
2022-10-14T07:43:26.411Z,15.43
2022-10-14T07:46:00.117Z,16.85
2022-10-14T07:48:38.576Z,13.70
2022-10-14T07:51:11.811Z,18.02
2022-10-14T07:53:38.461Z,14.43
2022-10-14T07:56:05.262Z,16.13
2022-10-14T07:58:31.826Z,12.23
2022-10-14T08:00:58.704Z,16.42
2022-10-14T08:03:25.802Z,12.13
2022-10-14T08:06:00.002Z,18.95
2022-10-14T08:08:28.546Z,13.35
2022-10-14T08:11:16.222Z,11.70
2022-10-14T08:13:46.340Z,12.57
2022-10-14T08:18:57.819Z,12.60
2022-10-14T08:21:25.487Z,14.75
2022-10-14T08:23:52.368Z,13.98
2022-10-14T08:29:02.730Z,17.75
2022-10-14T08:31:30.089Z,14.25
2022-10-14T08:33:57.181Z,11.07
2022-10-14T08:36:24.149Z,13.70
2022-10-14T08:38:53.142Z,9.82
2022-10-14T08:44:25.452Z,9.77
2022-10-14T08:46:58.263Z,11.77
2022-10-14T08:52:37.694Z,9.52
2022-10-14T08:55:19.835Z,11.50
2022-10-14T08:57:54.004Z,10.73
2022-10-14T09:00:21.134Z,12.85
2022-10-14T09:02:50.379Z,10.05
2022-10-14T09:05:21.928Z,12.60
2022-10-14T09:07:52.265Z,9.98
2022-10-14T09:10:30.236Z,14.20
2022-10-14T09:13:01.531Z,10.45
2022-10-14T09:15:34.955Z,11.07
2022-10-14T09:20:40.427Z,9.00
2022-10-14T09:28:36.825Z,11.48
2022-10-14T09:31:04.886Z,9.10
2022-10-14T09:33:32.080Z,13.73
2022-10-14T09:38:30.140Z,9.20
2022-10-14T09:40:59.680Z,8.65
2022-10-14T09:43:26.463Z,12.30
2022-10-14T09:51:30.974Z,11.80
2022-10-14T09:53:59.911Z,9.85
2022-10-14T09:56:41.651Z,8.68
2022-10-14T09:59:20.674Z,12.77
2022-10-14T10:01:53.536Z,10.88
2022-10-14T10:04:41.910Z,11.75
2022-10-14T10:10:01.430Z,12.25
2022-10-14T10:12:32.007Z,7.75
2022-10-14T10:15:05.387Z,4.75
2022-10-14T10:17:36.086Z,3.72
2022-10-14T10:20:09.292Z,4.93
2022-10-14T10:22:39.336Z,3.05
2022-10-14T10:27:47.962Z,2.00
2022-10-14T10:38:31.636Z,2.25
2022-10-14T10:52:36.654Z,2.22
2022-10-14T10:55:17.014Z,1.20
2022-10-14T11:06:10.871Z,2.92
2022-10-14T11:09:20.816Z,3.03
2022-10-14T11:12:15.605Z,2.58
2022-10-14T11:23:21.002Z,1.23
2022-10-14T11:31:13.590Z,0.90
2022-10-14T11:47:40.749Z,3.42
2022-10-14T11:50:31.688Z,3.05
2022-10-14T11:53:06.144Z,2.35
2022-10-14T11:55:39.380Z,5.28
2022-10-14T11:58:14.592Z,4.78
2022-10-14T12:00:45.118Z,4.50
2022-10-14T12:06:14.198Z,3.25
2022-10-14T12:09:03.534Z,3.70
2022-10-14T12:16:44.334Z,2.15
2022-10-14T12:19:14.611Z,3.63
2022-10-14T12:21:50.701Z,5.20
2022-10-14T12:24:22.020Z,5.95
2022-10-14T12:29:31.573Z,4.07
2022-10-14T12:34:43.617Z,6.30
2022-10-14T12:40:22.594Z,3.10
2022-10-14T12:43:01.544Z,5.60
2022-10-14T12:45:30.636Z,3.45
2022-10-14T12:50:57.635Z,5.10
2022-10-14T12:53:29.429Z,5.03
2022-10-14T12:55:59.955Z,2.95
2022-10-14T13:01:16.350Z,7.05
2022-10-14T13:03:47.388Z,7.28
2022-10-14T13:06:36.174Z,8.73
2022-10-14T13:09:29.838Z,4.68
2022-10-14T13:14:53.279Z,3.40
2022-10-14T13:26:29.485Z,6.60
2022-10-14T13:40:31.759Z,2.78
2022-10-14T13:43:00.615Z,3.63
2022-10-14T13:45:36.995Z,2.38
2022-10-14T13:48:06.300Z,2.47
2022-10-14T13:50:36.921Z,3.33
2022-10-14T13:53:07.967Z,5.43
2022-10-14T13:55:51.547Z,4.95
2022-10-14T14:06:15.655Z,3.80
2022-10-14T14:08:48.801Z,2.65
2022-10-14T14:11:22.618Z,3.17
2022-10-14T14:14:00.275Z,4.68
2022-10-14T14:16:32.066Z,4.10
2022-10-14T14:19:14.110Z,3.80
2022-10-14T14:21:40.824Z,5.35
2022-10-14T14:24:16.898Z,3.50
2022-10-14T14:26:44.251Z,3.03
2022-10-14T14:29:18.319Z,4.20
2022-10-14T14:32:06.819Z,2.95
2022-10-14T14:34:35.838Z,6.25
2022-10-14T14:37:17.587Z,4.93
2022-10-14T14:42:45.801Z,4.95
2022-10-14T14:47:51.330Z,3.15
2022-10-14T14:50:31.888Z,6.90
2022-10-14T14:53:04.433Z,3.47
2022-10-14T14:55:38.948Z,3.92
2022-10-14T14:58:13.782Z,7.88
2022-10-14T15:00:45.780Z,4.50
2022-10-14T15:03:13.197Z,5.85
2022-10-14T15:05:39.850Z,4.88
2022-10-14T15:08:19.826Z,3.85
2022-10-14T15:10:48.440Z,2.80
2022-10-14T15:16:08.013Z,4.47
2022-10-14T15:18:37.525Z,1.92
2022-10-14T15:21:17.147Z,3.50
2022-10-14T15:31:46.545Z,5.07
2022-10-14T15:34:20.199Z,4.00
2022-10-14T15:36:50.028Z,3.90
2022-10-14T15:41:43.701Z,2.72
2022-10-14T15:44:10.241Z,3.03
2022-10-14T15:46:57.565Z,4.65
2022-10-14T15:49:28.918Z,2.03
2022-10-14T15:51:55.568Z,2.65
2022-10-14T15:54:24.995Z,3.13
2022-10-14T15:56:51.846Z,2.38
2022-10-14T15:59:19.503Z,3.45
2022-10-14T16:01:47.228Z,2.47
2022-10-14T16:04:19.634Z,5.43
2022-10-14T16:06:46.968Z,3.25
2022-10-14T16:09:13.960Z,3.45
2022-10-14T16:11:40.924Z,3.67
2022-10-14T16:14:10.234Z,4.45
2022-10-14T16:16:41.772Z,4.28
2022-10-14T16:19:08.474Z,2.95
2022-10-14T16:21:35.070Z,3.85
2022-10-14T16:24:02.907Z,3.00
2022-10-14T16:26:30.153Z,5.55
2022-10-14T16:28:57.550Z,4.13
2022-10-14T16:31:24.387Z,2.72
2022-10-14T16:33:54.727Z,3.70
2022-10-14T16:36:23.186Z,5.72
2022-10-14T16:38:50.201Z,3.03
2022-10-14T16:41:16.801Z,4.10
2022-10-14T16:43:43.355Z,5.95
2022-10-14T16:46:14.611Z,3.42
2022-10-14T16:48:42.338Z,3.78
2022-10-14T16:51:09.223Z,3.78
2022-10-14T16:53:52.227Z,3.15
2022-10-14T16:56:40.697Z,5.07
2022-10-14T16:59:08.225Z,5.55
2022-10-14T17:01:34.859Z,3.40
2022-10-14T17:04:01.846Z,4.32
2022-10-14T17:06:28.428Z,3.13
2022-10-14T17:08:55.046Z,3.83
2022-10-14T17:11:22.310Z,4.95
2022-10-14T17:13:53.853Z,4.93
2022-10-14T17:16:21.194Z,2.55
2022-10-14T17:21:19.717Z,4.00
2022-10-14T17:23:46.532Z,3.80
2022-10-14T17:26:14.849Z,4.28
2022-10-14T17:28:42.556Z,3.75
2022-10-14T17:31:12.966Z,2.83
2022-10-14T17:33:40.261Z,5.85
2022-10-14T17:36:07.589Z,5.32
2022-10-14T17:38:35.687Z,2.80
2022-10-14T17:41:03.748Z,5.22
2022-10-14T17:43:30.343Z,3.17
2022-10-14T17:48:43.394Z,4.80
2022-10-14T17:51:12.112Z,5.00
2022-10-14T17:53:40.004Z,2.17
2022-10-14T17:56:08.645Z,4.40
2022-10-14T17:58:35.508Z,3.92
2022-10-14T18:01:08.004Z,3.13
2022-10-14T18:03:35.801Z,3.03
2022-10-14T18:06:13.844Z,1.10
2022-10-14T18:08:41.983Z,1.52
2022-10-14T18:11:10.979Z,2.25
2022-10-14T18:16:14.318Z,0.82
2022-10-14T18:18:42.032Z,2.38
2022-10-14T18:21:09.995Z,2.30
2022-10-14T18:23:39.131Z,2.78
2022-10-14T18:28:47.849Z,5.85
2022-10-14T18:33:43.600Z,7.47
2022-10-14T18:36:13.105Z,4.85
2022-10-14T18:38:40.214Z,9.70
2022-10-14T18:41:12.646Z,14.07
2022-10-14T18:43:39.762Z,11.77
2022-10-14T18:46:13.242Z,12.77
2022-10-14T18:48:42.377Z,14.80
2022-10-14T18:51:10.757Z,23.38
2022-10-14T18:53:39.105Z,24.25
2022-10-14T18:56:09.894Z,9.80
2022-10-14T18:58:38.505Z,7.20
2022-10-14T19:01:06.400Z,6.15
2022-10-14T19:03:34.714Z,4.18
2022-10-14T19:06:02.229Z,4.90
2022-10-14T19:08:28.751Z,5.30
2022-10-14T19:11:04.449Z,3.10
2022-10-14T19:13:31.424Z,3.10
2022-10-14T19:16:18.820Z,3.20
2022-10-14T19:18:45.804Z,3.30
2022-10-14T19:21:16.085Z,6.95
2022-10-14T19:23:43.902Z,3.80
2022-10-14T19:26:13.173Z,6.10
2022-10-14T19:28:40.159Z,4.68
2022-10-14T19:31:08.580Z,4.50
2022-10-14T19:33:37.305Z,4.05
2022-10-14T19:36:04.167Z,3.35
2022-10-14T19:38:30.677Z,4.38
2022-10-14T19:40:59.891Z,3.55
2022-10-14T19:43:27.309Z,5.10
2022-10-14T19:45:53.898Z,7.85
2022-10-14T19:48:20.678Z,3.15
2022-10-14T19:50:47.422Z,4.22
2022-10-14T19:53:14.263Z,5.18
2022-10-14T19:55:41.017Z,3.83
2022-10-14T19:58:07.541Z,4.45
2022-10-14T20:00:35.304Z,3.13
2022-10-14T20:03:04.551Z,3.38
2022-10-14T20:05:31.604Z,4.65
2022-10-14T20:07:58.409Z,5.30
2022-10-14T20:10:25.658Z,3.22
2022-10-14T20:12:52.162Z,3.72
2022-10-14T20:15:18.947Z,3.85
2022-10-14T20:17:45.486Z,5.03
2022-10-14T20:20:12.674Z,7.10
2022-10-14T20:22:39.219Z,5.20
2022-10-14T20:25:06.094Z,6.68
2022-10-14T20:27:32.699Z,6.03
2022-10-14T20:29:59.285Z,5.82
2022-10-14T20:32:25.877Z,6.75
2022-10-14T20:34:52.431Z,5.28
2022-10-14T20:37:21.899Z,6.13
2022-10-14T20:39:50.918Z,5.53
2022-10-14T20:42:17.476Z,6.65
2022-10-14T20:44:44.022Z,5.80
2022-10-14T20:47:10.686Z,5.72
2022-10-14T20:49:37.237Z,7.25
2022-10-14T20:52:03.836Z,8.38
2022-10-14T20:54:30.375Z,8.75
2022-10-14T20:56:56.912Z,8.68
2022-10-14T20:59:24.050Z,9.23
2022-10-14T21:01:50.717Z,7.40
2022-10-14T21:04:17.301Z,7.40
2022-10-14T21:06:43.844Z,8.65
2022-10-14T21:09:10.949Z,10.02
2022-10-14T21:11:37.635Z,9.52
2022-10-14T21:14:04.553Z,7.20
2022-10-14T21:16:34.266Z,6.82
2022-10-14T21:19:03.323Z,9.00
2022-10-14T21:21:34.148Z,7.40
2022-10-14T21:24:00.864Z,10.50
2022-10-14T21:26:27.526Z,7.47
2022-10-14T21:28:54.149Z,9.65
2022-10-14T21:31:21.675Z,8.77
2022-10-14T21:33:53.757Z,8.35
2022-10-14T21:36:20.582Z,7.60
2022-10-14T21:38:47.317Z,6.97
2022-10-14T21:41:14.125Z,7.68
2022-10-14T21:43:41.546Z,8.85
2022-10-14T21:46:14.231Z,8.07
2022-10-14T21:48:42.214Z,6.57
2022-10-14T21:51:11.897Z,7.10
2022-10-14T21:53:39.848Z,7.35
2022-10-14T21:56:07.090Z,9.32
2022-10-14T21:58:34.695Z,8.55
2022-10-14T22:03:39.381Z,7.43
2022-10-14T22:06:09.498Z,5.95
2022-10-14T22:08:39.606Z,5.88
2022-10-14T22:11:07.227Z,6.72
2022-10-14T22:13:34.918Z,6.13
2022-10-14T22:16:01.693Z,6.50
2022-10-14T22:18:28.556Z,7.22
2022-10-14T22:21:06.114Z,7.35
2022-10-14T22:23:33.655Z,6.95
2022-10-14T22:26:01.965Z,6.05
2022-10-14T22:28:32.805Z,7.80
2022-10-14T22:31:09.653Z,7.50
2022-10-14T22:33:37.991Z,6.45
2022-10-14T22:38:43.657Z,8.80
2022-10-14T22:41:11.487Z,9.85
2022-10-14T22:43:38.823Z,11.80
2022-10-14T22:46:08.279Z,9.35
2022-10-14T22:48:37.541Z,13.68
2022-10-14T22:53:41.023Z,9.75
2022-10-14T22:56:10.186Z,12.73
2022-10-14T22:58:37.072Z,12.07
2022-10-14T23:01:08.963Z,14.35
2022-10-14T23:03:36.827Z,14.23
2022-10-14T23:06:06.744Z,13.95
2022-10-14T23:08:34.577Z,12.73
2022-10-14T23:11:02.897Z,14.10
2022-10-14T23:13:29.522Z,13.13
2022-10-14T23:15:58.016Z,12.32
2022-10-14T23:18:25.709Z,10.73
2022-10-14T23:20:52.403Z,10.25
2022-10-14T23:23:19.200Z,12.68
2022-10-14T23:25:46.034Z,15.70
2022-10-14T23:28:12.736Z,10.45
2022-10-14T23:30:39.325Z,11.10
2022-10-14T23:33:05.993Z,12.35
2022-10-14T23:35:35.484Z,12.68
2022-10-14T23:38:02.031Z,9.35
2022-10-14T23:40:28.563Z,10.80
2022-10-14T23:42:55.170Z,11.15
2022-10-14T23:45:21.712Z,12.75
2022-10-14T23:47:48.226Z,9.27
2022-10-14T23:50:14.818Z,13.75
2022-10-14T23:52:41.601Z,13.48
2022-10-14T23:55:08.529Z,10.60
2022-10-14T23:57:35.049Z,10.68
